Date,TemperatureHighF,TemperatureAvgF,TemperatureLowF,DewpointHighF,DewpointAvgF,DewpointLowF,HumidityHigh,HumidityAvg,HumidityLow,PressureMaxIn,PressureMinIn,WindSpeedMaxMPH,WindSpeedAvgMPH,GustSpeedMaxMPH,PrecipitationSumIn
2013-4-1,69,58,44,57,46,38,98,70,37,30.07,29.89,13,2,18,0.01
2013-4-2,58,50,42,39,30,24,70,47,30,30.23,30.07,7,3,15,0.00
2013-4-3,57,50,44,42,29,23,88,45,33,30.24,30.14,7,3,13,0.01
2013-4-4,46,44,43,44,43,41,96,95,90,30.18,29.99,5,0,10,0.72
2013-4-5,65,52,43,45,41,37,97,72,37,30.10,30.00,9,3,22,0.01
2013-4-6,72,56,37,44,40,36,95,60,30,30.20,30.06,10,2,18,0.00
2013-4-7,75,62,48,50,46,40,80,58,37,30.18,30.03,13,3,27,0.00
2013-4-8,77,64,54,57,52,49,87,67,44,30.11,30.01,8,2,18,0.00
2013-4-9,81,68,53,60,56,51,94,66,43,30.18,30.02,9,2,20,0.00
2013-4-10,84,71,57,62,58,54,91,66,44,30.10,29.87,10,2,19,0.00
2013-4-11,78,69,61,67,60,57,96,75,58,29.89,29.60,13,4,35,1.52
2013-4-12,66,59,52,62,48,37,95,69,35,29.96,29.61,9,3,21,0.01
2013-4-13,74,58,43,46,42,37,92,58,27,30.08,29.96,10,1,18,0.00
2013-4-14,63,54,44,54,48,42,95,81,50,30.04,29.92,9,1,21,0.04
2013-4-15,76,65,56,60,57,54,93,76,55,30.10,29.93,8,2,17,0.00
2013-4-16,80,70,63,65,62,58,88,76,60,30.22,30.10,10,3,18,0.00
2013-4-17,84,72,66,71,64,61,90,78,56,30.19,30.03,10,2,20,0.02
2013-4-18,82,71,62,63,60,57,93,70,46,30.05,29.81,12,4,25,0.00
2013-4-19,73,58,44,65,52,38,95,79,60,30.09,29.68,13,5,28,1.18
2013-4-20,62,49,33,40,35,31,96,62,32,30.28,30.09,9,2,20,0.00
2013-4-21,70,56,42,43,38,34,82,53,30,30.37,30.22,7,1,13,0.00
2013-4-22,71,59,49,49,44,41,83,58,34,30.32,30.13,7,1,12,0.00
2013-4-23,74,62,51,52,45,36,70,54,42,30.23,30.03,8,3,16,0.00
2013-4-24,71,60,48,62,54,45,92,82,66,30.21,30.02,9,2,23,0.18
2013-4-25,67,53,43,44,39,33,87,62,32,30.35,30.21,7,2,21,0.00
2013-4-26,74,59,42,52,40,34,93,53,26,30.38,30.23,7,2,16,0.31
2013-4-27,66,57,53,57,54,52,97,89,65,30.38,30.08,9,2,17,0.72
2013-4-28,59,58,56,58,56,54,97,95,87,30.12,29.95,12,3,20,1.95
2013-4-29,73,62,55,61,57,54,97,84,59,30.04,29.93,6,1,12,0.00
2013-4-30,79,63,48,62,55,48,98,79,44,30.08,29.95,7,1,15,0.00